Time;durP1;ratioP1;P1;durP2;ratioP2;P2;SDS_P1;SDS_P2;PMS_P1;PMS_P2;Temp;Humidity;BMP_temperature;BMP_pressure;BME280_temperature;BME280_humidity;BME280_pressure;Samples;Min_cycle;Max_cycle;Signal;HPM_P1;HPM_P2
2022/01/06 00:06:45;;;;;;;39.60;14.07;;;;;;;5.22;100.00;99297.75;31161685;28;20045;-76
2022/01/06 00:37:08;;;;;;;41.33;14.10;;;;;;;5.21;100.00;99299.69;31175487;28;20371;-75
2022/01/06 00:52:10;;;;;;;73.77;13.97;;;;;;;5.19;100.00;99296.66;31216440;28;20055;-74
2022/01/06 01:07:11;;;;;;;50.13;13.33;;;;;;;5.16;100.00;99275.16;31205855;28;20594;-74
2022/01/06 01:22:13;;;;;;;73.07;13.53;;;;;;;5.07;100.00;99278.31;31201317;28;20049;-75
2022/01/06 01:37:15;;;;;;;147.30;26.77;;;;;;;4.95;100.00;99260.78;31218526;28;20081;-75
2022/01/06 01:52:17;;;;;;;80.60;15.40;;;;;;;4.89;100.00;99264.31;31227523;28;20055;-75
2022/01/06 02:07:19;;;;;;;63.20;17.53;;;;;;;4.67;100.00;99244.94;31201358;28;20080;-74
2022/01/06 02:22:21;;;;;;;103.50;17.80;;;;;;;4.44;100.00;99248.22;31191671;28;20053;-73
2022/01/06 02:37:23;;;;;;;38.87;10.30;;;;;;;4.31;100.00;99264.03;31222093;28;20200;-73
2022/01/06 02:52:25;;;;;;;79.63;13.47;;;;;;;4.30;100.00;99254.44;31175889;28;20045;-73
2022/01/06 03:07:27;;;;;;;110.90;17.57;;;;;;;4.24;100.00;99261.44;31224017;28;20499;-75
2022/01/06 03:22:29;;;;;;;112.70;14.53;;;;;;;4.10;100.00;99266.88;31196711;28;20399;-74
2022/01/06 03:37:31;;;;;;;70.10;13.93;;;;;;;3.99;100.00;99245.47;31210159;28;20140;-76
2022/01/06 03:52:32;;;;;;;46.67;10.53;;;;;;;3.99;100.00;99258.16;31171173;28;20052;-75
2022/01/06 04:07:35;;;;;;;53.90;9.70;;;;;;;3.92;100.00;99260.88;31178265;28;20121;-75
2022/01/06 04:22:37;;;;;;;81.77;10.97;;;;;;;3.92;100.00;99256.25;31218508;28;20046;-76
2022/01/06 04:37:39;;;;;;;38.20;7.03;;;;;;;3.88;100.00;99254.75;31208610;28;20057;-74
2022/01/06 04:52:41;;;;;;;24.93;8.30;;;;;;;3.89;100.00;99261.66;31210256;28;20132;-76
2022/01/06 05:07:44;;;;;;;61.77;8.73;;;;;;;4.01;100.00;99266.56;31190546;28;20054;-74
2022/01/06 05:22:46;;;;;;;41.27;5.90;;;;;;;4.10;100.00;99258.81;31205031;28;20064;-76
2022/01/06 05:37:48;;;;;;;150.50;22.83;;;;;;;4.19;100.00;99288.69;31200208;28;20045;-75
2022/01/06 05:52:54;;;;;;;82.03;11.33;;;;;;;4.35;100.00;99293.56;31228478;28;20046;-75
2022/01/06 06:07:56;;;;;;;54.97;8.13;;;;;;;4.59;100.00;99292.59;31215854;28;20503;-76
2022/01/06 06:22:58;;;;;;;65.73;12.30;;;;;;;4.86;100.00;99287.38;31220538;28;20063;-76
2022/01/06 06:38:00;;;;;;;147.83;14.27;;;;;;;5.10;100.00;99307.88;31169828;28;20056;-75
2022/01/06 06:53:02;;;;;;;79.07;12.30;;;;;;;5.23;100.00;99275.06;31218998;28;20056;-75
2022/01/06 07:08:04;;;;;;;112.90;17.83;;;;;;;5.29;100.00;99313.84;31212441;28;20056;-74
2022/01/06 07:23:06;;;;;;;42.87;13.17;;;;;;;5.43;100.00;99321.78;31206433;28;20514;-76
2022/01/06 07:38:08;;;;;;;42.43;13.20;;;;;;;5.60;100.00;99336.94;31212635;28;20129;-73
2022/01/06 07:53:10;;;;;;;55.53;14.57;;;;;;;5.88;100.00;99345.84;31215491;28;20051;-74
2022/01/06 08:08:12;;;;;;;37.03;12.60;;;;;;;5.79;100.00;99339.00;31216135;28;20054;-75
2022/01/06 08:23:14;;;;;;;41.03;13.13;;;;;;;5.83;100.00;99318.19;31204174;28;20047;-74
2022/01/06 08:38:16;;;;;;;35.60;12.73;;;;;;;5.89;100.00;99304.31;31207265;28;20132;-75
2022/01/06 08:53:18;;;;;;;37.93;12.23;;;;;;;5.95;100.00;99303.44;31246192;28;20053;-75
2022/01/06 09:08:20;;;;;;;30.53;11.67;;;;;;;5.90;100.00;99306.59;31217654;28;20164;-75
2022/01/06 09:23:22;;;;;;;37.37;13.97;;;;;;;5.99;100.00;99312.22;31192037;28;20529;-72
2022/01/06 09:38:25;;;;;;;28.93;12.00;;;;;;;6.05;100.00;99312.53;31193840;28;20056;-70
2022/01/06 09:53:27;;;;;;;39.53;14.80;;;;;;;5.99;100.00;99314.16;31197683;28;20537;-73
2022/01/06 10:08:29;;;;;;;41.30;19.53;;;;;;;6.22;100.00;99322.31;31169306;28;20060;-77
2022/01/06 10:23:31;;;;;;;41.70;15.80;;;;;;;6.25;100.00;99336.91;31188753;28;20041;-74
2022/01/06 10:38:33;;;;;;;38.20;13.53;;;;;;;6.25;100.00;99320.72;31184547;28;20054;-71
2022/01/06 10:53:49;;;;;;;51.40;20.00;;;;;;;6.17;100.00;99309.28;31179803;28;20056;-71
2022/01/06 11:08:52;;;;;;;29.63;13.57;;;;;;;6.14;100.00;99304.72;31157084;28;20128;-76
2022/01/06 11:24:22;;;;;;;49.37;17.77;;;;;;;6.12;100.00;99305.13;31180820;28;20491;-71
2022/01/06 11:39:28;;;;;;;61.50;23.30;;;;;;;6.24;100.00;99314.56;31186600;28;20053;-73
2022/01/06 11:54:30;;;;;;;74.77;21.13;;;;;;;6.18;100.00;99316.19;31165158;28;20056;-71
2022/01/06 12:09:32;;;;;;;54.83;20.17;;;;;;;6.16;100.00;99335.47;31179821;28;20053;-71
2022/01/06 12:24:35;;;;;;;54.27;15.53;;;;;;;6.18;100.00;99348.53;31200917;28;20060;-76
2022/01/06 12:39:37;;;;;;;55.73;19.70;;;;;;;6.17;100.00;99390.13;31180669;28;20057;-81
2022/01/06 12:54:41;;;;;;;52.23;15.27;;;;;;;6.07;100.00;99415.28;31213502;28;20517;-76
2022/01/06 13:09:44;;;;;;;65.20;17.37;;;;;;;6.07;100.00;99424.16;31218812;28;20057;-74
2022/01/06 13:24:46;;;;;;;45.10;15.80;;;;;;;6.01;100.00;99424.97;31205318;28;20064;-73
2022/01/06 13:39:51;;;;;;;60.60;17.40;;;;;;;5.96;100.00;99428.13;31224016;28;20050;-73
2022/01/06 13:54:55;;;;;;;51.10;15.10;;;;;;;5.76;100.00;99442.16;31198898;28;20042;-74
2022/01/06 14:09:57;;;;;;;56.63;15.73;;;;;;;5.66;100.00;99459.22;31227877;28;20061;-74
2022/01/06 14:24:59;;;;;;;58.77;16.07;;;;;;;5.61;100.00;99473.09;31205605;28;20052;-75
2022/01/06 14:40:00;;;;;;;61.00;16.57;;;;;;;5.60;100.00;99466.19;31197404;28;20072;-70
2022/01/06 14:55:03;;;;;;;57.73;17.33;;;;;;;5.58;100.00;99490.06;31166433;28;20049;-71
2022/01/06 15:10:08;;;;;;;69.27;18.03;;;;;;;5.36;100.00;99500.25;31204139;28;20049;-71
2022/01/06 15:25:11;;;;;;;133.47;22.67;;;;;;;5.23;100.00;99514.56;31186342;28;20053;-71
2022/01/06 15:40:14;;;;;;;69.20;20.33;;;;;;;5.17;100.00;99513.47;31169058;28;20073;-70
2022/01/06 15:55:16;;;;;;;74.70;22.07;;;;;;;5.06;100.00;99518.91;31167422;28;20513;-70
2022/01/06 16:10:18;;;;;;;67.03;17.93;;;;;;;4.99;100.00;99517.03;31167695;28;20419;-70
2022/01/06 16:25:20;;;;;;;72.37;17.50;;;;;;;4.88;100.00;99524.41;31176698;28;20058;-72
2022/01/06 16:40:22;;;;;;;185.20;21.97;;;;;;;4.81;100.00;99545.97;31184366;28;20045;-71
2022/01/06 16:55:26;;;;;;;97.03;29.77;;;;;;;4.74;100.00;99540.59;31208264;28;20108;-72
2022/01/06 17:10:29;;;;;;;70.17;25.77;;;;;;;4.69;100.00;99532.97;31146032;28;20068;-74
2022/01/06 17:25:31;;;;;;;109.60;34.70;;;;;;;4.63;100.00;99547.97;31182158;28;20071;-72
2022/01/06 17:40:33;;;;;;;124.70;35.93;;;;;;;4.57;100.00;99557.59;31215085;28;20057;-74
2022/01/06 17:55:36;;;;;;;118.03;36.07;;;;;;;4.53;100.00;99578.34;31176827;28;20053;-72
2022/01/06 18:26:00;;;;;;;76.43;23.03;;;;;;;4.50;100.00;99561.06;31200455;28;20063;-70
2022/01/06 18:41:04;;;;;;;78.10;23.23;;;;;;;4.32;100.00;99577.25;31146540;28;20153;-72
2022/01/06 18:56:07;;;;;;;77.37;21.93;;;;;;;4.22;100.00;99580.75;31170790;28;20129;-73
2022/01/06 19:11:09;;;;;;;70.40;19.17;;;;;;;4.06;100.00;99594.59;31189690;28;20056;-71
2022/01/06 19:26:11;;;;;;;151.23;22.33;;;;;;;4.01;100.00;99629.16;31199682;28;20422;-73
2022/01/06 19:41:13;;;;;;;58.87;16.50;;;;;;;3.97;100.00;99617.63;31164567;28;20050;-72
2022/01/06 19:56:15;;;;;;;62.80;15.17;;;;;;;3.98;100.00;99630.69;31152840;28;20042;-71
2022/01/06 20:11:18;;;;;;;95.63;20.47;;;;;;;4.05;100.00;99646.78;31183925;28;20099;-72
2022/01/06 20:26:21;;;;;;;83.20;17.63;;;;;;;4.03;100.00;99659.03;31185959;28;20064;-73
2022/01/06 20:41:25;;;;;;;88.87;20.43;;;;;;;4.05;100.00;99675.56;31179599;28;20053;-71
2022/01/06 20:56:27;;;;;;;73.00;17.03;;;;;;;4.20;100.00;99712.03;31176179;28;20053;-77
2022/01/06 21:11:31;;;;;;;74.40;18.37;;;;;;;4.23;100.00;99721.25;31175201;28;20107;-79
2022/01/06 21:26:32;;;;;;;100.70;23.77;;;;;;;4.25;100.00;99703.56;31219146;28;20125;-76
2022/01/06 21:41:36;;;;;;;91.67;23.23;;;;;;;4.27;100.00;99714.69;31212685;28;20136;-81
2022/01/06 21:56:38;;;;;;;114.07;26.50;;;;;;;4.22;100.00;99747.34;31201666;28;20132;-78
2022/01/06 22:11:42;;;;;;;74.97;22.97;;;;;;;4.26;100.00;99788.38;31202522;28;20060;-73
2022/01/06 22:26:44;;;;;;;68.50;20.73;;;;;;;4.22;100.00;99817.19;31201230;28;20045;-73
2022/01/06 22:41:46;;;;;;;59.73;18.03;;;;;;;4.32;100.00;99835.22;31168590;28;20064;-73
2022/01/06 22:56:48;;;;;;;36.47;14.10;;;;;;;4.39;100.00;99869.41;31207280;28;20484;-73
2022/01/06 23:11:50;;;;;;;39.07;15.33;;;;;;;4.42;100.00;99882.88;31207813;28;20061;-73
2022/01/06 23:26:53;;;;;;;40.60;15.03;;;;;;;4.24;100.00;99921.59;31199961;28;20045;-74
2022/01/06 23:41:55;;;;;;;38.03;13.57;;;;;;;4.16;100.00;99920.03;31158786;28;20511;-73
2022/01/06 23:56:57;;;;;;;30.17;13.17;;;;;;;4.10;100.00;99925.00;31192576;28;20066;-73
